createdAt,value
2023-01-06T00:00:19.286Z,98932.94
2023-01-06T00:02:24.226Z,98930.34
2023-01-06T00:04:29.163Z,98933.69
2023-01-06T00:06:36.613Z,98933.69
2023-01-06T00:08:41.975Z,98932.00
2023-01-06T00:10:46.463Z,98921.72
2023-01-06T00:12:52.507Z,98924.31
2023-01-06T00:14:57.291Z,98926.78
2023-01-06T00:17:02.218Z,98913.78
2023-01-06T00:19:06.978Z,98914.75
2023-01-06T00:21:12.469Z,98913.00
2023-01-06T00:23:19.941Z,98913.78
2023-01-06T00:25:24.883Z,98912.84
2023-01-06T00:27:29.651Z,98912.84
2023-01-06T00:29:34.533Z,98910.28
2023-01-06T00:31:40.547Z,98902.53
2023-01-06T00:33:47.191Z,98899.94
2023-01-06T00:35:51.699Z,98896.63
2023-01-06T00:37:56.530Z,98904.53
2023-01-06T00:40:03.959Z,98902.84
2023-01-06T00:42:08.912Z,98903.69
2023-01-06T00:44:13.698Z,98907.97
2023-01-06T00:46:19.058Z,98909.72
2023-01-06T00:48:23.987Z,98903.59
2023-01-06T00:50:28.855Z,98905.38
2023-01-06T00:52:34.401Z,98907.13
2023-01-06T00:54:39.443Z,98899.31
2023-01-06T00:56:49.645Z,98900.91
2023-01-06T00:58:54.483Z,98906.13
2023-01-06T01:00:59.239Z,98900.84
2023-01-06T01:03:04.117Z,98903.44
2023-01-06T01:05:09.468Z,98905.16
2023-01-06T01:07:14.353Z,98906.81
2023-01-06T01:09:22.262Z,98904.31
2023-01-06T01:11:41.062Z,98905.06
2023-01-06T01:13:48.475Z,98898.16
2023-01-06T01:15:53.338Z,98899.78
2023-01-06T01:17:58.177Z,98901.53
2023-01-06T01:20:03.167Z,98897.16
2023-01-06T01:22:08.053Z,98895.44
2023-01-06T01:24:15.106Z,98890.22
2023-01-06T01:26:19.906Z,98887.56
2023-01-06T01:28:24.928Z,98889.31
2023-01-06T01:30:32.220Z,98885.91
2023-01-06T01:32:37.029Z,98892.13
2023-01-06T01:34:42.082Z,98888.72
2023-01-06T01:36:48.338Z,98891.28
2023-01-06T01:38:53.174Z,98887.84
2023-01-06T01:40:58.066Z,98886.91
2023-01-06T01:43:02.870Z,98886.09
2023-01-06T01:45:09.607Z,98884.41
2023-01-06T01:47:18.511Z,98893.06
2023-01-06T01:49:29.429Z,98885.25
2023-01-06T01:51:39.708Z,98881.72
2023-01-06T01:53:49.712Z,98887.72
2023-01-06T01:55:58.149Z,98879.03
2023-01-06T01:58:09.251Z,98884.22
2023-01-06T02:00:15.112Z,98880.66
2023-01-06T02:02:23.236Z,98875.38
2023-01-06T02:04:31.003Z,98878.88
2023-01-06T02:06:36.142Z,98872.75
2023-01-06T02:08:44.860Z,98884.72
2023-01-06T02:10:49.809Z,98872.53
2023-01-06T02:13:02.792Z,98877.72
2023-01-06T02:15:17.515Z,98872.50
2023-01-06T02:17:41.889Z,98864.69
2023-01-06T02:20:28.183Z,98856.94
2023-01-06T02:22:52.971Z,98861.38
2023-01-06T02:25:35.722Z,98862.16
2023-01-06T02:28:20.483Z,98861.28
2023-01-06T02:31:05.074Z,98857.72
2023-01-06T02:33:25.331Z,98858.50
2023-01-06T02:36:03.614Z,98847.13
2023-01-06T02:38:21.246Z,98852.22
2023-01-06T02:40:48.525Z,98855.59
2023-01-06T02:43:05.688Z,98852.91
2023-01-06T02:45:18.059Z,98852.81
2023-01-06T02:47:28.845Z,98851.91
2023-01-06T02:49:45.952Z,98851.88
2023-01-06T02:51:58.113Z,98844.88
2023-01-06T02:54:11.493Z,98851.84
2023-01-06T02:56:16.471Z,98847.50
2023-01-06T02:58:31.598Z,98854.44
2023-01-06T03:00:40.348Z,98850.13
2023-01-06T03:02:50.425Z,98848.44
2023-01-06T03:04:59.409Z,98852.81
2023-01-06T03:07:08.165Z,98853.69
2023-01-06T03:09:18.228Z,98852.09
2023-01-06T03:11:23.500Z,98854.69
2023-01-06T03:13:35.603Z,98852.81
2023-01-06T03:15:41.007Z,98852.78
2023-01-06T03:17:47.736Z,98849.31
2023-01-06T03:19:52.799Z,98853.53
2023-01-06T03:22:05.067Z,98849.16
2023-01-06T03:24:12.164Z,98850.81
2023-01-06T03:26:18.309Z,98853.41
2023-01-06T03:28:24.324Z,98856.94
2023-01-06T03:30:36.803Z,98848.13
2023-01-06T03:32:50.247Z,98846.44
2023-01-06T03:35:14.337Z,98849.22
2023-01-06T03:37:28.522Z,98845.66
2023-01-06T03:39:48.188Z,98842.94
2023-01-06T03:42:28.078Z,98850.66
2023-01-06T03:44:49.328Z,98850.59
2023-01-06T03:46:58.227Z,98847.06
2023-01-06T03:49:10.148Z,98848.72
2023-01-06T03:51:28.526Z,98847.84
2023-01-06T03:53:42.799Z,98845.13
2023-01-06T03:55:50.805Z,98839.91
2023-01-06T03:58:01.235Z,98835.59
2023-01-06T04:00:09.878Z,98841.72
2023-01-06T04:02:26.528Z,98841.03
2023-01-06T04:04:32.038Z,98831.50
2023-01-06T04:06:37.000Z,98835.81
2023-01-06T04:08:45.795Z,98825.34
2023-01-06T04:10:51.228Z,98818.41
2023-01-06T04:12:53.505Z,98817.53
2023-01-06T04:15:03.145Z,98814.94
2023-01-06T04:17:07.927Z,98810.66
2023-01-06T04:19:13.284Z,98807.09
2023-01-06T04:21:18.124Z,98803.59
2023-01-06T04:23:23.069Z,98807.84
2023-01-06T04:25:30.973Z,98804.28
2023-01-06T04:27:35.877Z,98802.41
2023-01-06T04:29:40.697Z,98798.94
2023-01-06T04:31:45.562Z,98799.69
2023-01-06T04:33:50.426Z,98795.31
2023-01-06T04:35:55.389Z,98791.81
2023-01-06T04:38:00.775Z,98787.50
2023-01-06T04:40:07.719Z,98790.91
2023-01-06T04:42:15.216Z,98790.06
2023-01-06T04:44:20.061Z,98792.66
2023-01-06T04:46:24.836Z,98790.00
2023-01-06T04:48:29.697Z,98794.34
2023-01-06T04:50:34.547Z,98786.53
2023-01-06T04:52:39.384Z,98789.88
2023-01-06T04:54:44.205Z,98788.06
2023-01-06T04:56:49.018Z,98789.00
2023-01-06T04:59:00.091Z,98794.19
2023-01-06T05:01:06.012Z,98788.03
2023-01-06T05:03:10.879Z,98788.91
2023-01-06T05:05:16.125Z,98782.81
2023-01-06T05:07:20.959Z,98790.69
2023-01-06T05:09:25.791Z,98779.41
2023-01-06T05:11:30.801Z,98784.63
2023-01-06T05:13:36.084Z,98777.75
2023-01-06T05:15:43.904Z,98773.56
2023-01-06T05:17:48.808Z,98784.88
2023-01-06T05:19:53.660Z,98778.00
2023-01-06T05:21:58.727Z,98775.38
2023-01-06T05:24:03.668Z,98774.47
2023-01-06T05:26:09.139Z,98765.75
2023-01-06T05:28:13.965Z,98765.69
2023-01-06T05:30:18.757Z,98761.19
2023-01-06T05:32:26.125Z,98762.13
2023-01-06T05:34:31.109Z,98768.19
2023-01-06T05:36:36.032Z,98762.09
2023-01-06T05:38:41.325Z,98761.19
2023-01-06T05:40:45.841Z,98750.13
2023-01-06T05:42:50.731Z,98751.00
2023-01-06T05:44:55.534Z,98751.88
2023-01-06T05:47:00.388Z,98753.50
2023-01-06T05:49:07.917Z,98742.94
2023-01-06T05:51:15.219Z,98749.81
2023-01-06T05:53:19.996Z,98747.16
2023-01-06T05:55:24.844Z,98751.47
2023-01-06T05:57:29.702Z,98751.53
2023-01-06T05:59:34.535Z,98747.16
2023-01-06T06:01:39.384Z,98755.88
2023-01-06T06:03:44.214Z,98748.97
2023-01-06T06:05:51.653Z,98755.03
2023-01-06T06:07:57.149Z,98746.38
2023-01-06T06:10:02.184Z,98745.44
2023-01-06T06:12:07.788Z,98748.97
2023-01-06T06:14:13.251Z,98747.22
2023-01-06T06:16:20.218Z,98751.47
2023-01-06T06:18:25.170Z,98750.63
2023-01-06T06:20:30.081Z,98745.44
2023-01-06T06:22:37.488Z,98748.25
2023-01-06T06:24:42.791Z,98749.19
2023-01-06T06:26:47.452Z,98759.13
2023-01-06T06:28:52.257Z,98759.41
2023-01-06T06:30:57.067Z,98766.38
2023-01-06T06:33:01.940Z,98757.75
2023-01-06T06:35:07.372Z,98759.56
2023-01-06T06:37:12.678Z,98756.19
2023-01-06T06:39:20.563Z,98757.06
2023-01-06T06:41:27.336Z,98758.81
2023-01-06T06:43:32.567Z,98764.13
2023-01-06T06:45:37.452Z,98762.44
2023-01-06T06:47:42.333Z,98762.50
2023-01-06T06:49:47.218Z,98773.88
2023-01-06T06:51:55.528Z,98774.78
2023-01-06T06:54:00.689Z,98774.78
2023-01-06T06:56:09.851Z,98779.97
2023-01-06T06:58:14.688Z,98778.97
2023-01-06T07:00:20.228Z,98778.81
2023-01-06T07:02:25.062Z,98789.47
2023-01-06T07:04:30.128Z,98782.50
2023-01-06T07:06:35.045Z,98779.78
2023-01-06T07:08:40.049Z,98780.72
2023-01-06T07:10:44.834Z,98784.34
2023-01-06T07:12:52.432Z,98783.50
2023-01-06T07:14:59.993Z,98791.25
2023-01-06T07:17:04.868Z,98792.09
2023-01-06T07:19:11.405Z,98797.19
2023-01-06T07:21:16.206Z,98790.94
2023-01-06T07:23:21.135Z,98791.13
2023-01-06T07:25:26.363Z,98793.59
2023-01-06T07:27:31.234Z,98791.00
2023-01-06T07:29:38.660Z,98793.50
2023-01-06T07:31:43.469Z,98793.53
2023-01-06T07:33:48.300Z,98791.81
2023-01-06T07:35:55.811Z,98801.16
2023-01-06T07:38:06.368Z,98798.47
2023-01-06T07:40:12.580Z,98799.28
2023-01-06T07:42:17.593Z,98798.25
2023-01-06T07:44:22.425Z,98801.72
2023-01-06T07:46:29.884Z,98799.00
2023-01-06T07:48:34.692Z,98801.56
2023-01-06T07:50:39.497Z,98794.53
2023-01-06T07:52:44.341Z,98791.81
2023-01-06T07:54:49.371Z,98795.19
2023-01-06T07:56:54.172Z,98796.00
2023-01-06T07:58:58.998Z,98797.69
2023-01-06T08:01:08.625Z,98797.44
2023-01-06T08:03:16.327Z,98793.97
2023-01-06T08:05:21.531Z,98786.28
2023-01-06T08:07:32.945Z,98776.00
2023-01-06T08:09:37.715Z,98792.56
2023-01-06T08:11:42.582Z,98791.59
2023-01-06T08:13:50.439Z,98785.44
2023-01-06T08:15:55.245Z,98794.09
2023-01-06T08:18:00.220Z,98775.03
2023-01-06T08:20:10.143Z,98789.69
2023-01-06T08:22:14.995Z,98787.84
2023-01-06T08:24:19.850Z,98787.69
2023-01-06T08:26:24.877Z,98786.72
2023-01-06T08:28:30.222Z,98793.59
2023-01-06T08:30:40.122Z,98800.34
2023-01-06T08:32:44.969Z,98801.91
2023-01-06T08:34:50.004Z,98788.25
2023-01-06T08:36:57.417Z,98785.56
2023-01-06T08:39:02.401Z,98777.63
2023-01-06T08:41:07.560Z,98775.97
2023-01-06T08:43:12.501Z,98779.63
2023-01-06T08:45:17.267Z,98784.13
2023-01-06T08:47:22.127Z,98791.09
2023-01-06T08:49:29.762Z,98793.50
2023-01-06T08:51:35.974Z,98800.50
2023-01-06T08:53:44.029Z,98796.69
2023-01-06T08:55:48.879Z,98798.34
2023-01-06T08:57:55.023Z,98803.22
2023-01-06T09:00:00.122Z,98808.09
2023-01-06T09:02:05.072Z,98807.16
2023-01-06T09:04:11.236Z,98825.38
2023-01-06T09:06:16.396Z,98828.25
2023-01-06T09:08:21.006Z,98838.19
2023-01-06T09:10:28.474Z,98839.25
2023-01-06T09:12:33.301Z,98836.75
2023-01-06T09:14:38.108Z,98841.75
2023-01-06T09:16:43.060Z,98827.91
2023-01-06T09:18:49.874Z,98833.06
2023-01-06T09:20:54.769Z,98829.09
2023-01-06T09:22:59.519Z,98833.47
2023-01-06T09:25:04.487Z,98836.28
2023-01-06T09:27:11.829Z,98846.59
2023-01-06T09:29:16.749Z,98843.38
2023-01-06T09:31:21.680Z,98855.56
2023-01-06T09:33:29.383Z,98851.19
2023-01-06T09:35:37.202Z,98853.63
2023-01-06T09:37:42.045Z,98857.31
2023-01-06T09:39:46.826Z,98868.09
2023-01-06T09:42:21.865Z,98869.22
2023-01-06T09:44:32.930Z,98866.25
2023-01-06T09:46:44.300Z,98854.41
2023-01-06T09:49:02.114Z,98854.94
2023-01-06T09:51:09.806Z,98853.44
2023-01-06T09:53:20.765Z,98838.06
2023-01-06T09:55:35.118Z,98830.13
2023-01-06T09:57:47.907Z,98835.66
2023-01-06T09:59:58.228Z,98826.66
2023-01-06T10:02:05.924Z,98826.19
2023-01-06T10:04:14.874Z,98816.34
2023-01-06T10:06:34.635Z,98808.13
2023-01-06T10:08:51.334Z,98806.06
2023-01-06T10:11:11.319Z,98803.31
2023-01-06T10:13:32.704Z,98792.50
2023-01-06T10:15:45.073Z,98793.00
2023-01-06T10:18:03.541Z,98789.34
2023-01-06T10:20:33.232Z,98785.81
2023-01-06T10:22:49.968Z,98771.09
2023-01-06T10:25:02.645Z,98764.88
2023-01-06T10:27:20.569Z,98757.44
2023-01-06T10:29:34.631Z,98757.97
2023-01-06T10:31:42.835Z,98759.00
2023-01-06T10:33:52.778Z,98750.75
2023-01-06T10:35:59.309Z,98747.34
2023-01-06T10:38:09.660Z,98733.94
2023-01-06T10:40:22.703Z,98727.03
2023-01-06T10:42:49.426Z,98716.13
2023-01-06T10:44:56.925Z,98723.47
2023-01-06T10:47:01.841Z,98716.38
2023-01-06T10:49:08.937Z,98730.38
2023-01-06T10:51:37.609Z,98733.38
2023-01-06T10:53:45.648Z,98721.00
2023-01-06T10:55:54.838Z,98732.25
2023-01-06T10:58:06.195Z,98734.13
2023-01-06T11:00:17.741Z,98730.88
2023-01-06T11:02:25.979Z,98756.03
2023-01-06T11:04:31.199Z,98750.38
2023-01-06T11:06:36.644Z,98765.69
2023-01-06T11:08:42.875Z,98763.28
2023-01-06T11:10:57.150Z,98769.44
2023-01-06T11:13:05.337Z,98779.78
2023-01-06T11:15:25.473Z,98771.22
2023-01-06T11:17:32.227Z,98749.97
2023-01-06T11:19:40.074Z,98753.53
2023-01-06T11:21:46.958Z,98755.44
2023-01-06T11:23:52.531Z,98752.59
2023-01-06T11:26:10.502Z,98736.09
2023-01-06T11:28:21.246Z,98741.41
2023-01-06T11:30:32.101Z,98752.41
2023-01-06T11:32:37.923Z,98744.56
2023-01-06T11:34:52.265Z,98747.81
2023-01-06T11:36:57.236Z,98755.59
2023-01-06T11:39:04.643Z,98755.72
2023-01-06T11:41:11.078Z,98761.72
2023-01-06T11:43:19.574Z,98754.56
2023-01-06T11:45:39.286Z,98754.53
2023-01-06T11:47:44.276Z,98746.03
2023-01-06T11:49:52.800Z,98751.13
2023-01-06T11:52:03.332Z,98753.59
2023-01-06T11:54:26.216Z,98752.47
2023-01-06T11:56:31.027Z,98764.63
2023-01-06T11:58:47.052Z,98764.69
2023-01-06T12:00:57.092Z,98763.88
2023-01-06T12:03:08.868Z,98763.16
2023-01-06T12:05:24.178Z,98762.25
2023-01-06T12:07:34.373Z,98763.38
2023-01-06T12:09:45.464Z,98759.75
2023-01-06T12:11:53.279Z,98762.88
2023-01-06T12:14:27.427Z,98748.13
2023-01-06T12:16:37.437Z,98753.59
2023-01-06T12:18:44.628Z,98764.06
2023-01-06T12:20:52.562Z,98760.44
2023-01-06T12:23:01.884Z,98763.69
2023-01-06T12:25:08.572Z,98756.63
2023-01-06T12:27:22.066Z,98754.84
2023-01-06T12:29:28.119Z,98750.66
2023-01-06T12:31:48.142Z,98738.53
2023-01-06T12:34:00.068Z,98730.97
2023-01-06T12:36:09.100Z,98731.75
2023-01-06T12:38:25.742Z,98726.13
2023-01-06T12:40:35.518Z,98714.94
2023-01-06T12:42:47.145Z,98711.34
2023-01-06T12:44:57.146Z,98715.34
2023-01-06T12:47:09.995Z,98700.44
2023-01-06T12:49:24.516Z,98705.97
2023-01-06T12:51:36.664Z,98704.22
2023-01-06T12:53:46.985Z,98694.31
2023-01-06T12:56:01.895Z,98686.25
2023-01-06T12:58:12.676Z,98682.47
2023-01-06T13:00:31.359Z,98681.19
2023-01-06T13:03:01.413Z,98672.78
2023-01-06T13:05:21.817Z,98679.28
2023-01-06T13:07:39.449Z,98660.66
2023-01-06T13:09:57.704Z,98673.22
2023-01-06T13:12:20.567Z,98659.13
2023-01-06T13:14:33.452Z,98663.44
2023-01-06T13:16:44.986Z,98674.09
2023-01-06T13:19:05.683Z,98667.03
2023-01-06T13:21:13.951Z,98670.22
2023-01-06T13:23:34.702Z,98674.53
2023-01-06T13:26:08.874Z,98677.16
2023-01-06T13:28:25.430Z,98681.00
2023-01-06T13:31:01.172Z,98682.38
2023-01-06T13:33:31.558Z,98692.00
2023-01-06T13:35:58.295Z,98685.47
2023-01-06T13:38:20.661Z,98697.94
2023-01-06T13:40:29.760Z,98704.22
2023-01-06T13:42:39.933Z,98707.72
2023-01-06T13:44:47.724Z,98707.50
2023-01-06T13:46:55.039Z,98707.63
2023-01-06T13:49:03.872Z,98710.97
2023-01-06T13:51:14.646Z,98711.75
2023-01-06T13:53:22.487Z,98715.31
2023-01-06T13:55:31.550Z,98714.59
2023-01-06T13:57:40.316Z,98715.75
2023-01-06T13:59:52.159Z,98711.41
2023-01-06T14:01:59.949Z,98716.59
2023-01-06T14:04:44.409Z,98718.63
2023-01-06T14:06:52.358Z,98715.41
2023-01-06T14:08:59.579Z,98718.72
2023-01-06T14:11:32.333Z,98715.97
2023-01-06T14:13:43.426Z,98714.34
2023-01-06T14:15:56.761Z,98709.78
2023-01-06T14:18:02.927Z,98716.75
2023-01-06T14:20:09.848Z,98713.41
2023-01-06T14:22:23.257Z,98712.56
2023-01-06T14:24:33.682Z,98712.63
2023-01-06T14:26:54.839Z,98716.34
2023-01-06T14:29:40.240Z,98722.50
2023-01-06T14:31:45.113Z,98725.03
2023-01-06T14:33:56.563Z,98728.31
2023-01-06T14:36:09.508Z,98721.19
2023-01-06T14:38:28.576Z,98721.69
2023-01-06T14:40:36.832Z,98727.16
2023-01-06T14:42:46.112Z,98726.81
2023-01-06T14:44:55.227Z,98729.41
2023-01-06T14:47:04.666Z,98735.31
2023-01-06T14:49:19.507Z,98740.28
2023-01-06T14:51:25.466Z,98736.66
2023-01-06T14:53:38.484Z,98740.91
2023-01-06T14:55:49.799Z,98743.53
2023-01-06T14:57:54.916Z,98737.59
2023-01-06T15:00:11.585Z,98749.56
2023-01-06T15:02:19.196Z,98748.81
2023-01-06T15:04:28.005Z,98747.16
2023-01-06T15:06:34.398Z,98755.63
2023-01-06T15:08:41.892Z,98746.72
2023-01-06T15:10:48.459Z,98747.72
2023-01-06T15:12:56.981Z,98752.75
2023-01-06T15:15:17.087Z,98753.25
2023-01-06T15:17:22.904Z,98754.16
2023-01-06T15:19:28.364Z,98753.44
2023-01-06T15:21:33.305Z,98757.56
2023-01-06T15:23:40.654Z,98759.22
2023-01-06T15:25:51.260Z,98753.94
2023-01-06T15:27:57.631Z,98754.31
2023-01-06T15:30:02.624Z,98759.38
2023-01-06T15:32:14.666Z,98753.91
2023-01-06T15:34:22.447Z,98754.09
2023-01-06T15:36:28.789Z,98757.72
2023-01-06T15:38:37.064Z,98752.38
2023-01-06T15:40:42.572Z,98754.53
2023-01-06T15:42:50.108Z,98762.09
2023-01-06T15:44:59.678Z,98774.09
2023-01-06T15:47:18.552Z,98763.84
2023-01-06T15:49:29.017Z,98766.38
2023-01-06T15:51:33.894Z,98767.53
2023-01-06T15:53:39.238Z,98769.69
2023-01-06T15:55:44.357Z,98769.00
2023-01-06T15:57:53.877Z,98773.59
2023-01-06T16:00:01.154Z,98775.34
2023-01-06T16:02:06.360Z,98777.13
2023-01-06T16:04:11.401Z,98779.03
2023-01-06T16:06:19.817Z,98777.97
2023-01-06T16:08:27.414Z,98788.28
2023-01-06T16:10:36.956Z,98789.16
2023-01-06T16:12:41.944Z,98791.09
2023-01-06T16:14:50.669Z,98789.56
2023-01-06T16:16:57.061Z,98792.75
2023-01-06T16:19:11.520Z,98793.72
2023-01-06T16:21:20.467Z,98783.34
2023-01-06T16:23:32.257Z,98790.25
2023-01-06T16:25:38.187Z,98794.00
2023-01-06T16:27:43.023Z,98792.13
2023-01-06T16:29:50.442Z,98789.53
2023-01-06T16:31:55.385Z,98796.78
2023-01-06T16:34:18.284Z,98796.13
2023-01-06T16:36:23.621Z,98795.41
2023-01-06T16:38:28.502Z,98800.59
2023-01-06T16:40:33.494Z,98793.59
2023-01-06T16:42:43.104Z,98795.59
2023-01-06T16:45:03.532Z,98799.19
2023-01-06T16:47:12.026Z,98799.16
2023-01-06T16:49:16.894Z,98803.41
2023-01-06T16:51:22.736Z,98802.34
2023-01-06T16:53:33.742Z,98798.94
2023-01-06T16:55:39.269Z,98804.84
2023-01-06T16:57:44.392Z,98802.41
2023-01-06T16:59:51.976Z,98798.09
2023-01-06T17:01:59.412Z,98803.31
2023-01-06T17:04:04.478Z,98804.38
2023-01-06T17:06:16.477Z,98800.19
2023-01-06T17:08:27.299Z,98811.63
2023-01-06T17:10:32.936Z,98804.50
2023-01-06T17:12:50.329Z,98806.22
2023-01-06T17:14:57.738Z,98805.91
2023-01-06T17:17:05.582Z,98811.03
2023-01-06T17:19:23.966Z,98813.38
2023-01-06T17:21:32.266Z,98808.00
2023-01-06T17:23:42.229Z,98812.03
2023-01-06T17:25:47.823Z,98815.22
2023-01-06T17:27:52.623Z,98815.00
2023-01-06T17:30:03.317Z,98815.88
2023-01-06T17:32:17.916Z,98818.22
2023-01-06T17:34:26.720Z,98813.59
2023-01-06T17:36:38.517Z,98815.19
2023-01-06T17:38:45.762Z,98818.50
2023-01-06T17:40:51.234Z,98809.53
2023-01-06T17:43:04.693Z,98801.41
2023-01-06T17:45:19.460Z,98804.56
2023-01-06T17:47:31.383Z,98801.94
2023-01-06T17:49:39.872Z,98805.31
2023-01-06T17:51:45.226Z,98801.84
2023-01-06T17:54:03.384Z,98803.59
2023-01-06T17:56:10.902Z,98811.41
2023-01-06T17:58:18.197Z,98805.31
2023-01-06T18:00:36.179Z,98812.16
2023-01-06T18:02:44.905Z,98813.03
2023-01-06T18:04:49.763Z,98819.13
2023-01-06T18:06:57.303Z,98815.63
2023-01-06T18:09:05.458Z,98814.03
2023-01-06T18:11:26.768Z,98817.59
2023-01-06T18:13:37.388Z,98810.56
2023-01-06T18:15:44.905Z,98818.25
2023-01-06T18:17:49.693Z,98815.53
2023-01-06T18:19:55.311Z,98820.53
2023-01-06T18:22:00.633Z,98827.38
2023-01-06T18:24:15.801Z,98824.81
2023-01-06T18:26:36.375Z,98826.50
2023-01-06T18:28:41.156Z,98827.41
2023-01-06T18:30:49.343Z,98828.22
2023-01-06T18:32:55.078Z,98833.44
2023-01-06T18:35:01.381Z,98832.50
2023-01-06T18:37:07.540Z,98836.06
2023-01-06T18:39:12.386Z,98831.09
2023-01-06T18:41:17.692Z,98825.03
2023-01-06T18:43:28.046Z,98829.28
2023-01-06T18:45:36.457Z,98829.41
2023-01-06T18:47:45.525Z,98831.59
2023-01-06T18:49:57.389Z,98838.41
2023-01-06T18:52:02.462Z,98832.50
2023-01-06T18:54:17.776Z,98832.50
2023-01-06T18:56:26.931Z,98834.19
2023-01-06T18:58:46.389Z,98830.69
2023-01-06T19:00:55.189Z,98840.09
2023-01-06T19:03:20.845Z,98840.06
2023-01-06T19:05:26.323Z,98838.41
2023-01-06T19:07:33.729Z,98838.41
2023-01-06T19:09:42.737Z,98846.97
2023-01-06T19:11:48.422Z,98841.81
2023-01-06T19:13:57.862Z,98842.66
2023-01-06T19:16:13.347Z,98843.44
2023-01-06T19:18:21.419Z,98841.00
2023-01-06T19:20:29.309Z,98842.94
2023-01-06T19:22:38.210Z,98838.56
2023-01-06T19:24:54.005Z,98840.16
2023-01-06T19:27:00.837Z,98842.69
2023-01-06T19:29:12.144Z,98843.94
2023-01-06T19:31:22.741Z,98837.91
2023-01-06T19:33:35.942Z,98839.63
2023-01-06T19:35:40.802Z,98838.16
2023-01-06T19:37:45.740Z,98839.06
2023-01-06T19:39:59.313Z,98842.44
2023-01-06T19:42:16.499Z,98831.91
2023-01-06T19:44:22.006Z,98833.53
2023-01-06T19:46:30.076Z,98831.69
2023-01-06T19:48:43.056Z,98828.19
2023-01-06T19:50:47.822Z,98824.69
2023-01-06T19:52:58.692Z,98822.91
2023-01-06T19:55:21.218Z,98830.75
2023-01-06T19:57:29.351Z,98833.53
2023-01-06T19:59:36.764Z,98829.19
2023-01-06T20:01:41.936Z,98828.44
2023-01-06T20:03:50.941Z,98834.47
2023-01-06T20:05:55.868Z,98838.09
2023-01-06T20:08:00.978Z,98830.38
2023-01-06T20:10:05.679Z,98832.97
2023-01-06T20:12:12.290Z,98835.69
2023-01-06T20:14:17.205Z,98844.31
2023-01-06T20:16:22.055Z,98847.78
2023-01-06T20:18:27.000Z,98830.34
2023-01-06T20:20:34.435Z,98834.72
2023-01-06T20:22:39.324Z,98827.94
2023-01-06T20:24:44.182Z,98832.31
2023-01-06T20:26:49.048Z,98828.72
2023-01-06T20:28:54.948Z,98825.25
2023-01-06T20:30:59.908Z,98826.88
2023-01-06T20:33:04.928Z,98831.16
2023-01-06T20:35:11.307Z,98832.03
2023-01-06T20:37:18.820Z,98834.72
2023-01-06T20:39:23.826Z,98835.66
2023-01-06T20:41:28.686Z,98841.69
2023-01-06T20:43:33.496Z,98840.81
2023-01-06T20:45:38.335Z,98835.91
2023-01-06T20:47:46.562Z,98841.25
2023-01-06T20:49:52.397Z,98844.78
2023-01-06T20:51:57.463Z,98842.50
2023-01-06T20:54:06.667Z,98840.81
2023-01-06T20:56:11.529Z,98847.78
2023-01-06T20:58:16.631Z,98837.91
2023-01-06T21:00:21.482Z,98844.69
2023-01-06T21:02:26.594Z,98844.53
2023-01-06T21:04:34.224Z,98845.28
2023-01-06T21:06:39.261Z,98846.13
2023-01-06T21:08:44.079Z,98845.34
2023-01-06T21:10:51.488Z,98846.94
2023-01-06T21:12:57.666Z,98839.75
2023-01-06T21:15:02.469Z,98840.50
2023-01-06T21:17:07.343Z,98831.69
2023-01-06T21:19:12.206Z,98832.50
2023-01-06T21:21:17.309Z,98830.81
2023-01-06T21:23:22.048Z,98828.13
2023-01-06T21:25:27.037Z,98822.06
2023-01-06T21:27:37.462Z,98822.06
2023-01-06T21:29:42.264Z,98820.31
2023-01-06T21:31:48.444Z,98819.44
2023-01-06T21:33:53.310Z,98821.22
2023-01-06T21:35:58.162Z,98821.38
2023-01-06T21:38:03.015Z,98818.88
2023-01-06T21:40:09.451Z,98823.97
2023-01-06T21:42:26.718Z,98823.09
2023-01-06T21:44:34.195Z,98816.97
2023-01-06T21:46:40.076Z,98826.56
2023-01-06T21:48:44.943Z,98824.78
2023-01-06T21:50:49.810Z,98829.09
2023-01-06T21:52:54.865Z,98825.63
2023-01-06T21:55:02.738Z,98827.41
2023-01-06T21:57:07.584Z,98827.41
2023-01-06T21:59:12.418Z,98822.91
2023-01-06T22:01:21.846Z,98822.88
2023-01-06T22:03:26.775Z,98815.09
2023-01-06T22:05:31.801Z,98816.00
2023-01-06T22:07:38.863Z,98811.72
2023-01-06T22:09:46.129Z,98812.69
2023-01-06T22:11:51.267Z,98813.56
2023-01-06T22:13:56.631Z,98811.88
2023-01-06T22:16:01.827Z,98803.22
2023-01-06T22:18:10.335Z,98814.44
2023-01-06T22:20:17.686Z,98812.72
2023-01-06T22:22:23.391Z,98819.66
2023-01-06T22:24:28.631Z,98825.72
2023-01-06T22:26:33.179Z,98824.94
2023-01-06T22:28:38.104Z,98834.47
2023-01-06T22:30:43.070Z,98826.72
2023-01-06T22:32:49.145Z,98834.53
2023-01-06T22:34:56.949Z,98837.94
2023-01-06T22:37:01.760Z,98826.66
2023-01-06T22:39:07.161Z,98827.56
2023-01-06T22:41:12.695Z,98828.34
2023-01-06T22:43:18.321Z,98827.50
2023-01-06T22:45:23.237Z,98826.59
2023-01-06T22:47:28.138Z,98832.75
2023-01-06T22:49:32.951Z,98821.50
2023-01-06T22:51:40.621Z,98818.84
2023-01-06T22:53:48.342Z,98821.44
2023-01-06T22:55:59.445Z,98827.50
2023-01-06T22:58:04.288Z,98821.50
2023-01-06T23:00:14.851Z,98824.09
2023-01-06T23:02:19.965Z,98827.78
2023-01-06T23:04:24.646Z,98824.50
2023-01-06T23:06:29.560Z,98826.22
2023-01-06T23:08:48.084Z,98832.25
2023-01-06T23:11:03.769Z,98824.53
2023-01-06T23:13:11.185Z,98821.94
2023-01-06T23:15:16.002Z,98830.72
2023-01-06T23:17:20.787Z,98821.13
2023-01-06T23:19:25.665Z,98823.69
2023-01-06T23:21:33.327Z,98821.94
2023-01-06T23:23:44.691Z,98821.91
2023-01-06T23:25:49.518Z,98818.38
2023-01-06T23:27:54.363Z,98822.66
2023-01-06T23:29:59.531Z,98814.00
2023-01-06T23:32:07.306Z,98815.81
2023-01-06T23:34:15.039Z,98816.69
2023-01-06T23:36:22.085Z,98800.19
2023-01-06T23:38:26.941Z,98814.13
2023-01-06T23:40:34.313Z,98808.78
2023-01-06T23:42:48.057Z,98804.50
2023-01-06T23:44:53.677Z,98804.44
2023-01-06T23:46:58.417Z,98796.84
2023-01-06T23:49:03.269Z,98801.19
2023-01-06T23:51:10.361Z,98799.44
2023-01-06T23:53:15.165Z,98800.47
2023-01-06T23:55:19.934Z,98796.13
2023-01-06T23:57:27.450Z,98792.75
2023-01-06T23:59:32.267Z,98800.78
